Latest Weather Observations for Victoria Portable AWS F (CFA)

IDV60801

Issued at 12:42 pm EDT Saturday 10 December 2022 (issued every 10 minutes, with the page automatically refreshed every 10 minutes)

About weather observations | Map of weather stations | Latest weather observations for VIC | Other Formats
Station Details ID: 250135 Name: PORTABLE VIC AWS 6 (CFA) Lat: -38.91 Lon: 146.25 Height: 0.0 m

Portable automatic weather stations (PAWS) are operated by other organisations, such as Fire and Emergency Services, and are included here by agreement. Portable stations may be deployed to a location for a short period and their location may be subject to change without notice. Wind observations from these stations are provided from heights of either three (3) or ten (10) metres above ground level (AGL).

Data from the previous 72 hours. | See also: Recent months for locations in Victoria
Date/Time
EDT
Temp
°C
App
Temp
°C
Dew
Point
°C
Rel
Hum
%
Delta-T
°C
Wind Press
QNH
hPa
Press
MSL
hPa
Rain since
9am
mm
Dir  Spd
km/h
Gust
km/h
Spd
kts
Gust
kts
10/12:30pm 20.6 16.8 5.8 38 - NE 15 19 8 10 - - -
10/12:20pm 20.4 16.8 6.8 41 - NE 15 17 8 9 - - -
10/12:10pm 20.4 16.8 6.9 41 - NE 15 17 8 9 - - -
10/12:00pm 20.4 17.5 8.2 45 - NE 13 17 7 9 - - -
10/11:50am 20.1 17.2 8.1 46 - NE 13 17 7 9 - - -
10/11:40am 19.7 16.4 8.1 47 - ENE 15 17 8 9 - - -
10/11:30am 19.5 16.2 8.2 48 - NE 15 19 8 10 - - -
10/11:20am 19.7 16.9 8.5 48 - NE 13 17 7 9 - - -
10/11:10am 19.7 17.0 9.0 50 - NE 13 15 7 8 - - -
10/11:00am 19.8 17.6 9.2 50 - NE 11 15 6 8 - - -
10/10:50am 19.7 17.2 8.2 47 - NE 11 15 6 8 - - -
10/10:40am 19.3 16.8 8.3 49 - NE 11 15 6 8 - - -
10/10:30am 18.9 16.5 8.8 52 - NNE 11 17 6 9 - - -
10/10:20am 19.0 16.5 8.3 50 - NE 11 15 6 8 - - -
10/10:10am 18.5 15.5 7.5 48 - NE 13 15 7 8 - - -
10/10:00am 17.7 14.8 8.0 53 - NE 13 17 7 9 - - -
10/09:50am 18.0 14.9 7.4 50 - NE 13 15 7 8 - - -
10/09:40am 18.0 15.3 7.3 49 - NE 11 15 6 8 - - -
10/09:30am 17.6 15.2 7.2 50 - NNE 9 13 5 7 - - -
10/09:20am 17.6 14.8 6.9 49 - NE 11 13 6 7 - - -
10/09:10am 17.4 15.0 7.2 51 - NNE 9 13 5 7 - - -
10/09:00am 17.1 14.8 7.3 52 - NE 9 15 5 8 - - -
10/08:50am 17.0 14.2 7.0 51 - NE 11 13 6 7 - - -
10/08:40am 16.8 14.5 7.5 54 - NNE 9 11 5 6 - - -
10/08:30am 16.8 14.6 7.9 55 - NE 9 11 5 6 - - -
10/08:20am 16.5 14.8 8.3 58 - NNE 7 9 4 5 - - -
10/08:10am 16.1 14.3 8.0 58 - NE 7 9 4 5 - - -
10/08:00am 15.4 13.3 8.1 61 - ENE 9 11 5 6 - - -
10/07:50am 14.9 12.8 8.1 64 - NE 9 13 5 7 - - -
10/07:40am 14.2 12.1 8.3 67 - NE 9 11 5 6 - - -
10/07:30am 13.4 11.6 8.1 70 - NE 7 7 4 4 - - -
10/07:20am 12.0 10.4 7.9 76 - NE 6 7 3 4 - - -
10/07:10am 10.2 9.0 8.1 87 - NE 4 6 2 3 - - -
10/07:00am 8.4 7.0 7.3 93 - NNE 4 4 2 2 - - -
10/06:50am 6.5 5.1 5.4 93 - N 2 4 1 2 - - -
10/06:40am 3.4 1.4 2.2 92 - N 2 2 1 1 - - -
10/06:30am 0.8 -1.6 -0.4 92 - NNW 2 2 1 1 - - -
10/06:20am -0.1 -2.3 -1.4 91 - CALM 0 0 0 0 - - -
10/06:10am -0.4 -2.6 -1.6 92 - CALM 0 0 0 0 - - -
10/06:00am -0.6 -2.8 -1.9 91 - CALM 0 0 0 0 - - -
10/05:50am -0.6 -2.8 -1.8 92 - CALM 0 0 0 0 - - -
10/05:40am -0.6 -2.8 -1.9 91 - CALM 0 0 0 0 - - -
10/05:30am -0.6 -2.8 -1.9 91 - CALM 0 0 0 0 - - -
10/05:20am -0.5 -2.7 -1.8 91 - CALM 0 0 0 0 - - -
10/05:10am -0.4 -2.6 -1.7 91 - CALM 0 0 0 0 - - -
10/05:00am -0.4 -2.6 -1.7 91 - CALM 0 0 0 0 - - -
10/04:50am -0.3 -2.5 -1.6 91 - CALM 0 0 0 0 - - -
10/04:40am -0.1 -2.3 -1.5 90 - CALM 0 0 0 0 - - -
10/04:30am 0.0 -2.2 -1.4 90 - CALM 0 0 0 0 - - -
10/04:20am 0.0 -2.2 -1.4 90 - CALM 0 0 0 0 - - -
10/04:10am 0.1 -2.1 -1.3 90 - CALM 0 0 0 0 - - -
10/04:00am 0.2 -2.0 -1.2 90 - CALM 0 0 0 0 - - -
10/03:50am 0.4 -1.7 -1.0 90 - CALM 0 0 0 0 - - -
10/03:40am 0.4 -1.7 -1.0 90 - CALM 0 0 0 0 - - -
10/03:30am 0.5 -1.6 -0.9 90 - CALM 0 0 0 0 - - -
10/03:20am 0.4 -1.7 -1.1 90 - CALM 0 0 0 0 - - -
10/03:10am 0.6 -1.5 -0.9 90 - CALM 0 0 0 0 - - -
10/03:00am 0.8 -1.3 -0.7 90 - CALM 0 0 0 0 - - -
10/02:50am 0.9 -1.2 -0.6 90 - CALM 0 0 0 0 - - -
10/02:40am 1.0 -1.1 -0.5 90 - CALM 0 0 0 0 - - -
10/02:30am 1.2 -0.8 -0.4 89 - CALM 0 2 0 1 - - -
10/02:20am 1.2 -0.8 -0.3 90 - CALM 0 2 0 1 - - -
10/02:10am 1.4 -0.6 -0.2 89 - CALM 0 0 0 0 - - -
10/02:00am 1.5 -0.5 0.0 90 - CALM 0 0 0 0 - - -
10/01:50am 1.6 -0.4 0.1 90 - CALM 0 0 0 0 - - -
10/01:40am 1.9 0.0 0.3 89 - CALM 0 0 0 0 - - -
10/01:30am 2.0 0.1 0.4 89 - CALM 0 0 0 0 - - -
10/01:20am 2.1 0.2 0.3 88 - CALM 0 0 0 0 - - -
10/01:10am 2.3 0.4 0.6 88 - CALM 0 0 0 0 - - -
10/01:00am 2.4 0.5 0.8 89 - CALM 0 2 0 1 - - -
10/12:50am 2.5 0.6 0.7 88 - CALM 0 0 0 0 - - -
10/12:40am 2.7 0.9 0.9 88 - CALM 0 0 0 0 - - -
10/12:30am 2.9 1.1 1.1 88 - CALM 0 0 0 0 - - -
10/12:20am 3.1 1.3 1.2 87 - CALM 0 0 0 0 - - -
10/12:10am 3.3 1.2 1.5 88 - ENE 2 2 1 1 - - -
10/12:00am 3.3 1.5 1.4 87 - CALM 0 0 0 0 - - -
 
Date/Time
EDT
Temp
°C
App
Temp
°C
Dew
Point
°C
Rel
Hum
%
Delta-T
°C
Wind Press
QNH
hPa
Press
MSL
hPa
Rain since
9am
mm
Dir  Spd
km/h
Gust
km/h
Spd
kts
Gust
kts
09/11:50pm 3.5 1.8 1.6 87 - CALM 0 0 0 0 - - -
09/11:40pm 3.8 2.1 1.8 87 - CALM 0 0 0 0 - - -
09/11:30pm 4.0 2.3 2.0 87 - CALM 0 0 0 0 - - -
09/11:20pm 4.2 2.2 2.2 87 - SE 2 2 1 1 - - -
09/11:10pm 4.4 2.7 2.1 85 - CALM 0 2 0 1 - - -
09/11:00pm 4.7 3.1 2.4 85 - CALM 0 2 0 1 - - -
09/10:50pm 5.1 3.6 2.8 85 - CALM 0 2 0 1 - - -
09/10:40pm 5.5 4.0 3.0 84 - CALM 0 0 0 0 - - -
09/10:30pm 5.9 4.5 3.3 83 - CALM 0 0 0 0 - - -
09/10:20pm 6.3 4.9 3.3 81 - CALM 0 0 0 0 - - -
09/10:10pm 6.6 5.3 4.0 83 - CALM 0 2 0 1 - - -
09/10:00pm 7.0 5.7 4.1 82 - CALM 0 2 0 1 - - -
09/09:50pm 7.3 6.0 4.2 81 - CALM 0 0 0 0 - - -
09/09:40pm 7.7 6.5 4.4 79 - CALM 0 0 0 0 - - -
09/09:30pm 8.2 7.0 4.8 79 - CALM 0 0 0 0 - - -
09/09:20pm 8.8 7.7 4.9 76 - CALM 0 0 0 0 - - -
09/09:10pm 9.3 8.2 5.0 74 - CALM 0 0 0 0 - - -
09/09:00pm 10.0 8.9 5.0 71 - CALM 0 0 0 0 - - -
09/08:50pm 10.7 9.6 5.2 69 - CALM 0 0 0 0 - - -
09/08:40pm 11.5 10.1 5.7 67 - ESE 2 4 1 2 - - -
09/08:30pm 12.2 10.9 5.8 65 - SSW 2 4 1 2 - - -
09/08:20pm 12.9 11.6 6.0 63 - S 2 4 1 2 - - -
09/08:10pm 13.5 11.8 5.9 60 - SSE 4 4 2 2 - - -
09/08:00pm 13.7 11.9 5.6 58 - S 4 6 2 3 - - -
09/07:50pm 14.3 12.1 5.5 55 - SSE 6 6 3 3 - - -
09/07:40pm 15.0 13.2 5.5 53 - S 4 6 2 3 - - -
09/07:30pm 14.5 12.2 5.0 53 - S 6 7 3 4 - - -
09/07:20pm 14.8 12.4 5.4 53 - SSE 7 11 4 6 - - -
09/07:10pm 15.6 13.2 5.3 50 - S 7 9 4 5 - - -
09/07:00pm 15.8 13.0 5.0 48 - SSE 9 9 5 5 - - -
09/06:50pm 15.9 13.0 4.4 46 - SSE 9 9 5 5 - - -
09/06:40pm 16.2 13.3 4.7 46 - S 9 9 5 5 - - -
09/06:30pm 16.1 13.2 4.6 46 - SSE 9 11 5 6 - - -
09/06:20pm 16.4 13.4 4.2 44 - S 9 11 5 6 - - -
09/06:10pm 16.3 13.4 4.8 46 - S 9 11 5 6 - - -
09/06:00pm 16.5 13.6 4.5 45 - SSE 9 9 5 5 - - -
09/05:50pm 16.6 13.7 4.5 44 - S 9 11 5 6 - - -
09/05:40pm 16.7 13.8 4.4 44 - S 9 13 5 7 - - -
09/05:30pm 16.5 13.3 5.3 47 - S 11 13 6 7 - - -
09/05:20pm 16.6 13.3 4.6 45 - S 11 13 6 7 - - -
09/05:10pm 16.6 13.3 4.8 45 - S 11 13 6 7 - - -
09/05:00pm 16.8 13.5 4.7 44 - S 11 13 6 7 - - -
09/04:50pm 16.9 13.7 4.9 45 - S 11 13 6 7 - - -
09/04:40pm 16.7 13.4 4.4 44 - S 11 15 6 8 - - -
09/04:30pm 16.6 13.2 4.0 43 - S 11 15 6 8 - - -
09/04:20pm 16.9 13.1 4.0 42 - S 13 15 7 8 - - -
09/04:10pm 17.2 13.8 4.1 41 - S 11 13 6 7 - - -
09/04:00pm 17.0 13.5 3.4 40 - S 11 13 6 7 - - -
09/03:50pm 16.9 13.4 3.7 41 - S 11 13 6 7 - - -
09/03:40pm 16.7 13.1 3.2 40 - S 11 13 6 7 - - -
09/03:30pm 17.2 13.7 3.3 39 - S 11 15 6 8 - - -
09/03:20pm 17.2 13.8 4.1 41 - S 11 13 6 7 - - -
09/03:10pm 16.9 13.1 4.1 42 - S 13 15 7 8 - - -
09/03:00pm 17.2 13.8 3.8 41 - S 11 15 6 8 - - -
09/02:50pm 16.8 12.9 3.3 40 - S 13 15 7 8 - - -
09/02:40pm 17.2 13.7 3.6 40 - S 11 17 6 9 - - -
09/02:30pm 17.1 13.2 3.4 40 - S 13 15 7 8 - - -
09/02:20pm 17.1 13.5 3.0 39 - S 11 17 6 9 - - -
09/02:10pm 17.4 13.9 3.5 39 - S 11 15 6 8 - - -
09/02:00pm 16.9 13.1 3.8 41 - S 13 15 7 8 - - -
09/01:50pm 17.0 13.6 4.0 42 - S 11 13 6 7 - - -
09/01:40pm 16.9 13.5 4.0 42 - S 11 13 6 7 - - -
09/01:30pm 16.8 13.0 3.8 42 - S 13 17 7 9 - - -
09/01:20pm 17.1 13.8 4.5 43 - S 11 13 6 7 - - -
09/01:10pm 17.0 13.8 5.0 45 - S 11 15 6 8 - - -
09/01:00pm 16.7 13.4 4.8 45 - S 11 13 6 7 - - -
09/12:50pm 16.7 12.8 3.4 41 - S 13 15 7 8 - - -
09/12:40pm 16.7 12.8 3.4 41 - S 13 15 7 8 - - -
09/12:30pm 16.7 12.7 2.8 39 - S 13 13 7 7 - - -
09/12:20pm 17.0 13.5 3.7 41 - S 11 13 6 7 - - -
09/12:10pm 16.8 13.4 4.0 42 - S 11 15 6 8 - - -
09/12:00pm 16.8 13.2 3.2 40 - S 11 13 6 7 - - -
09/11:50am 16.2 12.7 3.4 42 - S 11 13 6 7 - - -
09/11:40am 15.9 12.4 3.6 44 - S 11 13 6 7 - - -
09/11:30am 16.4 13.4 3.9 43 - S 9 11 5 6 - - -
09/11:20am 16.8 13.4 4.2 43 - S 11 15 6 8 - - -
09/11:10am 16.7 13.2 3.7 42 - S 11 13 6 7 - - -
09/11:00am 15.9 12.4 3.4 43 - S 11 13 6 7 - - -
09/10:50am 15.9 12.7 3.3 43 - S 9 13 5 7 - - -
09/10:40am 15.9 12.4 3.5 43 - S 11 13 6 7 - - -
09/10:30am 14.8 11.6 3.0 45 - S 9 11 5 6 - - -
09/10:20am 14.8 12.0 3.3 46 - SSE 7 11 4 6 - - -
09/10:10am 15.2 12.2 4.0 47 - S 9 11 5 6 - - -
09/10:00am 15.3 12.2 3.7 46 - S 9 11 5 6 - - -
09/09:50am 15.1 12.4 3.9 47 - SSE 7 9 4 5 - - -
09/09:40am 16.4 13.3 3.7 42 - SSE 9 11 5 6 - - -
09/09:30am 16.6 14.6 4.5 44 - - 4 6 2 3 - - -
09/09:20am 14.1 12.1 4.3 51 - ESE 4 6 2 3 - - -
09/09:10am 14.1 11.6 4.8 53 - SE 7 9 4 5 - - -
09/09:00am 15.9 13.4 5.0 48 - SSE 7 9 4 5 - - -
09/08:50am 15.9 13.4 5.0 48 - SE 7 9 4 5 - - -
09/08:40am 15.8 13.3 4.6 47 - SE 7 11 4 6 - - -
09/08:30am 15.7 13.3 5.2 49 - SE 7 9 4 5 - - -
09/08:20am 16.1 13.6 4.9 47 - ESE 7 11 4 6 - - -
09/08:10am 15.2 12.9 5.0 50 - SE 6 9 3 5 - - -
09/08:00am 14.6 12.4 6.1 56 - ESE 7 9 4 5 - - -
09/07:50am 15.3 13.0 5.8 53 - ESE 7 9 4 5 - - -
09/07:40am 15.3 13.0 5.7 52 - ESE 7 11 4 6 - - -
09/07:30am 14.9 12.9 6.2 56 - SE 6 7 3 4 - - -
09/07:20am 14.3 12.0 5.8 56 - SSE 7 11 4 6 - - -
09/07:10am 13.3 11.1 5.5 59 - SE 6 6 3 3 - - -
09/07:00am 12.8 10.6 5.3 60 - SSE 6 7 3 4 - - -
09/06:50am 11.9 9.5 4.4 60 - S 6 9 3 5 - - -
09/06:40am 11.7 9.2 4.9 63 - SSE 7 9 4 5 - - -
09/06:30am 11.6 9.1 4.9 63 - S 7 9 4 5 - - -
09/06:20am 11.4 8.9 4.5 62 - S 7 9 4 5 - - -
09/06:10am 11.3 8.8 4.6 63 - S 7 11 4 6 - - -
09/06:00am 11.1 8.2 4.9 65 - S 9 11 5 6 - - -
09/05:50am 11.0 8.7 4.7 65 - SSE 6 7 3 4 - - -
09/05:40am 11.0 8.0 4.3 63 - SSE 9 11 5 6 - - -
09/05:30am 11.1 8.1 4.1 62 - S 9 11 5 6 - - -
09/05:20am 11.1 8.4 3.8 60 - S 7 11 4 6 - - -
09/05:10am 11.1 8.2 4.5 64 - S 9 15 5 8 - - -
09/05:00am 11.1 8.5 4.3 63 - S 7 11 4 6 - - -
09/04:50am 11.2 8.3 4.4 63 - S 9 13 5 7 - - -
09/04:40am 11.2 8.2 4.2 62 - S 9 11 5 6 - - -
09/04:30am 11.2 8.1 3.8 60 - S 9 9 5 5 - - -
09/04:20am 11.3 7.8 3.7 59 - S 11 17 6 9 - - -
09/04:10am 11.4 7.7 4.2 61 - S 13 15 7 8 - - -
09/04:00am 11.4 7.6 4.1 61 - S 13 17 7 9 - - -
09/03:50am 11.4 8.0 4.1 61 - S 11 13 6 7 - - -
09/03:40am 11.3 7.8 3.3 58 - S 11 13 6 7 - - -
09/03:30am 11.4 7.8 2.7 55 - S 11 13 6 7 - - -
09/03:20am 11.5 8.0 3.3 57 - S 11 15 6 8 - - -
09/03:10am 11.5 7.6 3.5 58 - S 13 15 7 8 - - -
09/03:00am 11.5 8.1 3.8 59 - S 11 15 6 8 - - -
09/02:50am 11.4 8.0 4.0 60 - S 11 17 6 9 - - -
09/02:40am 11.5 7.8 4.3 61 - S 13 15 7 8 - - -
09/02:30am 11.5 8.1 4.1 60 - S 11 15 6 8 - - -
09/02:20am 11.5 7.8 4.2 61 - S 13 15 7 8 - - -
09/02:10am 11.4 8.1 4.7 63 - S 11 13 6 7 - - -
09/02:00am 11.5 7.6 3.2 56 - S 13 15 7 8 - - -
09/01:50am 11.6 7.9 4.5 61 - S 13 15 7 8 - - -
09/01:40am 11.7 7.9 4.0 59 - S 13 15 7 8 - - -
09/01:30am 11.7 8.0 4.3 60 - S 13 17 7 9 - - -
09/01:20am 11.9 7.7 3.9 58 - S 15 20 8 11 - - -
09/01:10am 11.9 8.1 3.7 57 - SSW 13 15 7 8 - - -
09/01:00am 12.0 8.2 4.0 58 - SSW 13 15 7 8 - - -
09/12:50am 12.0 8.2 4.0 58 - SSW 13 15 7 8 - - -
09/12:40am 12.0 8.6 4.1 58 - S 11 15 6 8 - - -
09/12:30am 12.1 8.5 2.9 53 - S 11 15 6 8 - - -
09/12:20am 12.2 8.3 3.3 54 - S 13 17 7 9 - - -
09/12:10am 12.2 8.3 3.4 55 - S 13 15 7 8 - - -
09/12:00am 12.2 8.3 3.3 54 - SSW 13 20 7 11 - - -
 
Date/Time
EDT
Temp
°C
App
Temp
°C
Dew
Point
°C
Rel
Hum
%
Delta-T
°C
Wind Press
QNH
hPa
Press
MSL
hPa
Rain since
9am
mm
Dir  Spd
km/h
Gust
km/h
Spd
kts
Gust
kts
08/11:50pm 12.2 8.3 3.5 55 - SSW 13 17 7 9 - - -
08/11:40pm 12.1 8.2 3.6 56 - SSW 13 17 7 9 - - -
08/11:30pm 12.2 8.4 3.7 56 - SSW 13 19 7 10 - - -
08/11:20pm 12.2 8.0 3.9 57 - SSW 15 17 8 9 - - -
08/11:10pm 12.3 8.4 3.5 55 - SSW 13 19 7 10 - - -
08/11:00pm 12.3 8.3 3.1 53 - SSW 13 17 7 9 - - -
08/10:50pm 12.2 8.4 3.7 56 - SSW 13 15 7 8 - - -
08/10:40pm 12.1 8.2 3.6 56 - SSW 13 15 7 8 - - -
08/10:30pm 12.0 8.0 3.1 54 - SSW 13 17 7 9 - - -
08/10:20pm 12.1 7.3 2.8 53 - SSW 17 19 9 10 - - -
08/10:10pm 12.1 7.7 2.9 53 - SSW 15 19 8 10 - - -
08/10:00pm 12.1 7.8 3.1 54 - SSW 15 20 8 11 - - -
08/09:50pm 12.0 7.7 3.2 55 - SSW 15 19 8 10 - - -
08/09:40pm 12.0 7.3 2.9 53 - SSW 17 20 9 11 - - -
08/09:30pm 12.1 7.8 3.5 55 - SSW 15 19 8 10 - - -
08/09:20pm 12.1 7.5 3.9 57 - SSW 17 20 9 11 - - -
08/09:10pm 12.1 7.4 3.4 55 - SSW 17 19 9 10 - - -
08/09:00pm 12.1 7.5 3.5 55 - SW 17 20 9 11 - - -
08/08:50pm 12.2 7.9 3.3 54 - SSW 15 19 8 10 - - -
08/08:40pm 12.3 7.6 3.0 53 - SW 17 20 9 11 - - -
08/08:30pm 12.3 7.8 4.0 57 - SSW 17 20 9 11 - - -
08/08:20pm 12.3 7.5 2.8 52 - SW 17 20 9 11 - - -
08/08:10pm 12.4 7.7 3.0 52 - SSW 17 19 9 10 - - -
08/08:00pm 12.7 7.9 2.5 50 - SW 17 20 9 11 - - -
08/07:50pm 12.9 7.7 2.4 49 - SSW 19 20 10 11 - - -
08/07:40pm 13.1 8.0 3.0 50 - SSW 19 22 10 12 - - -
08/07:30pm 13.4 8.8 3.8 52 - SSW 17 19 9 10 - - -
08/07:20pm 13.3 8.4 4.2 54 - SW 19 22 10 12 - - -
08/07:10pm 13.8 8.9 4.1 52 - SW 19 20 10 11 - - -
08/07:00pm 13.7 8.4 3.1 48 - SW 20 24 11 13 - - -
08/06:50pm 13.7 9.0 3.2 49 - SSW 17 20 9 11 - - -
08/06:40pm 14.0 9.3 3.2 48 - SSW 17 20 9 11 - - -
08/06:30pm 14.6 10.0 3.9 48 - SSW 17 19 9 10 - - -
08/06:20pm 14.5 9.5 3.6 48 - SSW 19 22 10 12 - - -
08/06:10pm 14.7 10.1 3.7 47 - SSW 17 20 9 11 - - -
08/06:00pm 14.5 9.7 4.6 51 - SSW 19 20 10 11 - - -
08/05:50pm 14.4 9.3 3.9 49 - SW 20 24 11 13 - - -
08/05:40pm 14.8 9.9 4.1 48 - SW 19 24 10 13 - - -
08/05:30pm 14.9 10.5 4.9 51 - SSW 17 20 9 11 - - -
08/05:20pm 14.2 9.2 3.8 49 - SW 19 24 10 13 - - -
08/05:10pm 14.4 9.4 4.8 52 - SW 20 26 11 14 - - -
08/05:00pm 15.3 10.2 4.2 47 - SW 20 22 11 12 - - -
08/04:50pm 15.4 10.2 3.4 44 - SW 20 24 11 13 - - -
08/04:40pm 15.6 10.7 4.2 46 - SW 19 22 10 12 - - -
08/04:30pm 15.9 10.8 3.0 42 - SSW 19 24 10 13 - - -
08/04:20pm 15.8 10.8 4.4 46 - SW 20 22 11 12 - - -
08/04:10pm 15.7 10.9 4.6 47 - SSW 19 24 10 13 - - -
08/04:00pm 15.0 10.2 4.5 49 - SSW 19 20 10 11 - - -
08/03:50pm 15.4 10.6 4.7 49 - SSW 19 22 10 12 - - -
08/03:40pm 15.6 10.6 4.6 48 - SW 20 26 11 14 - - -
08/03:30pm 15.9 11.1 4.4 46 - SW 19 24 10 13 - - -
08/03:20pm 15.7 10.9 4.4 47 - SW 19 20 10 11 - - -
08/03:10pm 15.8 10.8 4.7 47 - SW 20 24 11 13 - - -
08/03:00pm 16.1 11.2 4.9 47 - SW 20 24 11 13 - - -
08/02:50pm 16.0 11.0 4.6 46 - SW 20 22 11 12 - - -
08/02:40pm 15.8 10.7 4.0 45 - SW 20 24 11 13 - - -
08/02:30pm 15.8 10.6 3.8 44 - SW 20 24 11 13 - - -
08/02:20pm 16.3 11.2 4.2 44 - SW 20 22 11 12 - - -
08/02:10pm 15.8 10.7 3.9 45 - SSW 20 24 11 13 - - -
08/02:00pm 15.8 10.8 3.8 44 - SSW 19 22 10 12 - - -
08/01:50pm 15.5 10.7 4.5 48 - SSW 19 22 10 12 - - -
08/01:40pm 15.6 10.5 4.1 46 - SSW 20 24 11 13 - - -
08/01:30pm 15.4 11.2 5.5 51 - SSW 17 22 9 12 - - -
08/01:20pm 16.1 11.3 4.5 46 - SSW 19 20 10 11 - - -
08/01:10pm 15.8 11.0 4.8 48 - SSW 19 20 10 11 - - -
08/01:00pm 15.0 10.0 3.6 46 - SW 19 20 10 11 - - -
08/12:50pm 15.1 10.6 4.2 48 - SSW 17 20 9 11 - - -
08/12:40pm 15.0 10.1 5.0 51 - SSW 20 24 11 13 - - -
08/12:30pm 15.0 10.6 6.6 57 - SSW 19 26 10 14 - - -
08/12:20pm 15.6 10.7 4.2 46 - SSW 19 22 10 12 - - -
08/12:10pm 15.5 11.4 6.4 54 - SSW 17 19 9 10 - - -
08/12:00pm 15.2 10.3 5.0 50 - SW 20 26 11 14 - - -
08/11:50am 15.2 10.1 4.3 48 - SSW 20 22 11 12 - - -
08/11:40am 14.9 9.7 3.4 46 - SSW 20 24 11 13 - - -
08/11:30am 14.6 9.5 4.3 50 - SW 20 24 11 13 - - -
08/11:20am 15.5 10.6 4.2 47 - SSW 19 24 10 13 - - -
08/11:10am 15.2 10.2 3.7 46 - SSW 19 22 10 12 - - -
08/11:00am 14.6 9.6 3.7 48 - SW 19 20 10 11 - - -
08/10:50am 14.2 9.2 4.7 53 - SW 20 26 11 14 - - -
08/10:40am 15.4 10.7 5.1 50 - SSW 19 20 10 11 - - -
08/10:30am 15.3 10.3 4.8 49 - S 20 26 11 14 - - -
08/10:20am 15.1 10.2 4.0 47 - S 19 22 10 12 - - -
08/10:10am 15.0 10.2 4.6 49 - SSW 19 22 10 12 - - -
08/10:00am 15.0 10.1 4.2 48 - SSW 19 22 10 12 - - -
08/09:50am 15.1 10.3 4.7 50 - S 19 22 10 12 - - -
08/09:40am 15.1 10.8 5.1 51 - SSW 17 19 9 10 - - -
08/09:30am 14.4 9.4 3.5 48 - SSW 19 20 10 11 - - -
08/09:20am 13.4 8.9 4.0 53 - SW 17 20 9 11 - - -
08/09:10am 13.8 9.3 6.0 59 - SSW 19 22 10 12 - - -
08/09:00am 13.8 8.9 4.1 52 - SSW 19 22 10 12 - - -
08/08:50am 13.3 8.3 4.4 55 - SSW 20 24 11 13 - - -
08/08:40am 14.1 9.2 4.0 50 - SSW 19 22 10 12 - - -
08/08:30am 13.2 8.2 3.8 53 - SSW 19 24 10 13 - - -
08/08:20am 13.6 8.4 3.6 51 - SSW 20 24 11 13 - - -
08/08:10am 13.2 8.6 3.6 52 - SSW 17 20 9 11 - - -
08/08:00am 12.3 7.5 2.5 51 - SSW 17 20 9 11 - - -
08/07:50am 12.7 7.9 4.5 57 - SSW 19 22 10 12 - - -
08/07:40am 12.2 7.0 3.6 55 - SSW 20 26 11 14 - - -
08/07:30am 11.7 6.9 4.9 63 - SSW 19 24 10 13 - - -
08/07:20am 12.0 7.8 3.9 57 - SSW 15 17 8 9 - - -
08/07:10am 11.3 6.7 3.7 59 - SSW 17 22 9 12 - - -
08/07:00am 11.3 6.0 3.1 57 - SSW 20 24 11 13 - - -
08/06:50am 11.0 6.8 4.0 62 - SSW 15 20 8 11 - - -
08/06:40am 10.1 6.1 4.9 70 - SW 15 20 8 11 - - -
08/06:30am 10.3 5.7 3.9 64 - SW 17 19 9 10 - - -
08/06:20am 10.5 5.2 2.9 59 - SW 20 24 11 13 - - -
08/06:10am 11.0 5.7 3.1 58 - SSW 20 24 11 13 - - -
08/06:00am 11.0 5.9 3.3 59 - SSW 19 24 10 13 - - -
08/05:50am 10.6 5.9 3.1 60 - SW 17 17 9 9 - - -
08/05:40am 10.2 5.5 2.9 60 - SW 17 20 9 11 - - -
08/05:30am 9.5 4.7 2.6 62 - SW 17 24 9 13 - - -
08/05:20am 10.0 5.2 5.4 73 - SW 20 28 11 15 - - -
08/05:10am 11.4 6.3 2.9 56 - SSW 19 22 10 12 - - -
08/05:00am 11.5 6.4 3.2 56 - SW 19 24 10 13 - - -
08/04:50am 11.5 6.3 2.6 54 - SW 19 24 10 13 - - -
08/04:40am 11.4 6.1 3.2 57 - SW 20 22 11 12 - - -
08/04:30am 11.3 6.1 3.6 59 - SW 20 24 11 13 - - -
08/04:20am 11.2 6.1 3.3 58 - SSW 19 24 10 13 - - -
08/04:10am 11.3 5.9 2.5 54 - SW 20 24 11 13 - - -
08/04:00am 11.2 6.2 3.5 59 - SSW 19 22 10 12 - - -
08/03:50am 11.3 5.8 3.8 60 - SSW 22 26 12 14 - - -
08/03:40am 11.5 6.3 3.6 58 - SW 20 26 11 14 - - -
08/03:30am 11.8 6.8 4.7 62 - SSW 20 24 11 13 - - -
08/03:20am 11.9 6.1 2.5 52 - SW 22 28 12 15 - - -
08/03:10am 12.0 6.2 2.4 52 - SSW 22 30 12 16 - - -
08/03:00am 11.9 7.0 5.3 64 - SSW 20 22 11 12 - - -
08/02:50am 11.8 6.6 3.3 56 - SW 20 24 11 13 - - -
08/02:40am 11.8 6.4 2.6 53 - SW 20 24 11 13 - - -
08/02:30am 11.8 5.9 1.5 49 - SSW 22 24 12 13 - - -
08/02:20am 11.7 6.2 1.9 51 - SSW 20 22 11 12 - - -
08/02:10am 11.8 6.0 2.5 53 - SW 22 26 12 14 - - -
08/02:00am 11.7 6.3 2.5 53 - SSW 20 22 11 12 - - -
08/01:50am 11.7 6.3 2.7 54 - SSW 20 24 11 13 - - -
08/01:40am 11.2 6.3 4.1 61 - SW 19 22 10 12 - - -
08/01:30am 12.0 7.0 4.5 60 - SW 20 24 11 13 - - -
08/01:20am 11.9 6.6 3.0 54 - SW 20 24 11 13 - - -
08/01:10am 11.7 6.8 4.3 60 - SW 19 24 10 13 - - -
08/01:00am 11.9 7.1 5.6 65 - SW 20 26 11 14 - - -
08/12:50am 11.8 6.8 4.6 61 - SW 20 26 11 14 - - -
08/12:40am 11.6 5.6 3.2 56 - SW 24 28 13 15 - - -
08/12:30am 11.7 6.6 4.1 59 - SW 20 26 11 14 - - -
08/12:20am 11.5 6.3 3.8 59 - SW 20 24 11 13 - - -
08/12:10am 11.1 6.7 4.7 64 - SW 17 24 9 13 - - -
08/12:00am 10.7 6.2 6.1 73 - SW 19 22 10 12 - - -
 
Date/Time
EDT
Temp
°C
App
Temp
°C
Dew
Point
°C
Rel
Hum
%
Delta-T
°C
Wind Press
QNH
hPa
Press
MSL
hPa
Rain since
9am
mm
Dir  Spd
km/h
Gust
km/h
Spd
kts
Gust
kts
07/11:50pm 10.1 5.4 5.1 71 - SW 19 24 10 13 - - -
07/11:40pm 10.3 4.5 6.3 76 - SW 26 28 14 15 - - -
07/11:30pm 10.4 5.9 5.9 73 - SW 19 22 10 12 - - -
07/11:20pm 11.4 7.0 6.6 72 - SW 19 22 10 12 - - -
07/11:10pm 11.4 7.0 6.7 73 - SSW 19 22 10 12 - - -
07/11:00pm 11.7 7.4 7.1 73 - SSW 19 22 10 12 - - -
07/10:50pm 12.1 7.8 7.2 72 - SSW 19 22 10 12 - - -
07/10:40pm 12.3 7.8 6.9 69 - SSW 20 24 11 13 - - -
07/10:30pm 12.2 7.7 6.9 70 - SW 20 24 11 13 - - -
07/10:20pm 11.7 7.3 7.3 74 - SSW 20 26 11 14 - - -
07/10:10pm 12.2 7.4 7.3 72 - SW 22 30 12 16 - - -
07/10:00pm 12.1 7.3 7.2 72 - SW 22 28 12 15 - - -
07/09:50pm 12.0 7.8 8.2 77 - SW 20 22 11 12 - - -
07/09:40pm 11.7 8.4 9.6 87 - SW 17 20 9 11 - - -
07/09:30pm 11.8 7.9 8.8 82 - SW 19 28 10 15 - - -
07/09:20pm 11.5 8.2 9.4 87 - SW 17 22 9 12 - - -
07/09:10pm 11.7 8.8 9.7 87 - SW 15 17 8 9 - - -
07/09:00pm 11.5 8.6 9.6 88 - SW 15 19 8 10 - - -
07/08:50pm 12.1 8.6 8.8 80 - SW 17 20 9 11 - - -
07/08:40pm 12.3 8.7 8.3 76 - SW 17 22 9 12 - - -
07/08:30pm 12.3 8.5 9.0 80 - SW 19 22 10 12 - - -
07/08:20pm 12.5 8.4 8.7 77 - SW 20 24 11 13 - - -
07/08:10pm 12.5 8.1 8.8 78 - SW 22 30 12 16 - - -
07/08:00pm 13.6 9.0 8.3 70 - WSW 22 28 12 15 - - -
07/07:50pm 14.5 10.5 8.9 69 - WSW 20 22 11 12 - - -
07/07:40pm 14.8 10.8 8.3 65 - WSW 19 22 10 12 - - -
07/07:30pm 15.3 11.3 8.2 62 - WSW 19 22 10 12 - - -
07/07:20pm 16.0 11.9 7.7 58 - WSW 19 22 10 12 - - -
07/07:10pm 15.8 11.6 7.4 57 - WSW 19 24 10 13 - - -
07/07:00pm 15.6 11.5 8.0 60 - WSW 19 22 10 12 - - -
07/06:50pm 16.2 12.5 7.9 58 - WSW 17 20 9 11 - - -
07/06:40pm 15.9 12.3 8.2 60 - WSW 17 22 9 12 - - -
07/06:30pm 16.4 12.6 7.7 56 - SW 17 20 9 11 - - -
07/06:20pm 16.3 12.5 7.7 56 - WSW 17 22 9 12 - - -
07/06:10pm 16.6 12.8 7.6 55 - WSW 17 20 9 11 - - -
07/06:00pm 17.0 12.8 7.5 53 - WSW 19 22 10 12 - - -
07/05:50pm 16.3 12.3 8.1 58 - WSW 19 24 10 13 - - -
07/05:40pm 16.2 12.2 8.1 58 - WSW 19 20 10 11 - - -
07/05:30pm 16.3 12.6 8.1 58 - WSW 17 19 9 10 - - -
07/05:20pm 16.3 12.8 8.9 61 - WSW 17 20 9 11 - - -
07/05:10pm 17.1 13.5 8.5 57 - SW 17 20 9 11 - - -
07/05:00pm 17.5 13.8 8.1 54 - SW 17 22 9 12 - - -
07/04:50pm 16.0 12.4 8.4 60 - SW 17 17 9 9 - - -
07/04:40pm 16.8 13.2 8.3 57 - WSW 17 20 9 11 - - -
07/04:30pm 17.3 13.9 7.7 53 - WSW 15 19 8 10 - - -
07/04:20pm 16.9 13.5 7.7 54 - SW 15 19 8 10 - - -
07/04:10pm 16.8 13.4 7.5 54 - SW 15 19 8 10 - - -
07/04:00pm 16.2 12.7 7.4 56 - WSW 15 19 8 10 - - -
07/03:50pm 16.8 13.5 8.0 56 - SW 15 20 8 11 - - -
07/03:40pm 18.1 14.7 7.5 50 - WSW 15 19 8 10 - - -
07/03:30pm 17.2 13.9 8.2 55 - WSW 15 17 8 9 - - -
07/03:20pm 17.9 14.1 7.6 51 - SW 17 20 9 11 - - -
07/03:10pm 17.9 14.2 7.8 51 - SW 17 20 9 11 - - -
07/03:00pm 17.4 13.9 8.7 56 - WSW 17 20 9 11 - - -
07/02:50pm 17.9 14.3 8.3 53 - WSW 17 19 9 10 - - -
07/02:40pm 17.9 15.1 8.4 53 - WSW 13 19 7 10 - - -
07/02:30pm 18.4 14.7 8.1 51 - SW 17 19 9 10 - - -
07/02:20pm 17.9 15.4 8.0 52 - WSW 11 15 6 8 - - -
07/02:10pm 16.7 13.8 8.0 56 - SW 13 15 7 8 - - -
07/02:00pm 16.4 13.6 8.4 59 - SW 13 17 7 9 - - -
07/01:50pm 16.2 13.3 8.2 59 - SW 13 19 7 10 - - -
07/01:40pm 16.2 13.3 8.3 59 - SSW 13 17 7 9 - - -
07/01:30pm 16.2 13.4 8.7 61 - SW 13 15 7 8 - - -
07/01:20pm 16.3 13.5 8.5 60 - SW 13 17 7 9 - - -
07/01:10pm 16.8 14.1 8.8 59 - SW 13 15 7 8 - - -
07/01:00pm 16.9 14.1 8.7 58 - SW 13 17 7 9 - - -
07/12:50pm 16.7 13.3 9.3 61 - SW 17 19 9 10 - - -

Other formats

Comma delimited format used in spreadsheet applications
http://www.bom.gov.au/fwo/IDV60801/IDV60801.99818.axf

JavaScript Object Notation format (JSON) in row-major order
http://www.bom.gov.au/fwo/IDV60801/IDV60801.99818.json

Data quality

Most of these data are generated automatically and are frequently updated. Quality checks on data are not normally performed. It is possible for incorrect values to appear. Refer to information at About Latest Weather Observations and please check the disclaimer before using these data.